San Juan Clipper — WDH9703 — position and weather

sailwx.info

Track history (hours):
 
Tides and Currents Weather Stations Pressure Air Temp Water Temp Dewpoint Dewpoint Depression Visibility Wind Speed Wind Dir Waves Ship Positions

San Juan Clipper

Owner: Clipper Navigation Inc., Seattle, WA. More information available from US FCC via Universal Licensing System and Coast Guard Vessel Documentation Center.

Last reported at 2017-Dec-17 02:27 UTC. Time now 2017-Dec-17 06:22 UTC.
Position N 47°37' W 122°21'.

Length 26 m; draft 1.5 m.

Type: Passenger vessel. MMSI: 366902890.

Date/timePositionNaut miles runAvg speedWind from/ knotsBaromVisibWave heightAir tempDewpointWater temp
2017-Dec-17 02:27N 47°37' W 122°21'510.4
2017-Dec-17 02:01N 47°40' W 122°27'1121.4
2017-Dec-17 01:30N 47°50' W 122°24'1221.9
2017-Dec-17 00:58N 48°02' W 122°21'2 0.5
2017-Dec-16 20:50N 48°02' W 122°24'515.5
2017-Dec-16 20:31N 47°58' W 122°20'1223.7
2017-Dec-16 20:01N 47°46' W 122°25'1019.7
2017-Dec-16 19:30N 47°37' W 122°21'0 0.3
2017-Dec-16 18:53N 47°37' W 122°21'0 0.0
2017-Dec-16 18:30N 47°37' W 122°21'0 0.0
2017-Dec-16 18:00N 47°37' W 122°21'2 3.1
2017-Dec-16 17:30N 47°35' W 122°21'  
2017-Dec-11 02:14N 47°37' W 122°21'0 0.2
2017-Dec-11 02:00N 47°37' W 122°21'1019.8
2017-Dec-11 01:31N 47°46' W 122°25'1325.5
2017-Dec-11 01:00N 47°59' W 122°20'5 7.7
2017-Dec-11 00:24N 48°02' W 122°24'0 0.0
2017-Dec-10 23:54N 48°02' W 122°24'0 0.0
2017-Dec-10 21:18N 48°02' W 122°24'0 0.0
2017-Dec-10 20:52N 48°02' W 122°24'514.8
2017-Dec-10 20:30N 47°58' W 122°20'1122.8
2017-Dec-10 20:01N 47°47' W 122°25'1020.3
2017-Dec-10 19:30N 47°37' W 122°22'1 1.4
2017-Dec-10 19:00N 47°37' W 122°21'0 0.1
2017-Dec-10 18:27N 47°37' W 122°21'0 0.1
2017-Dec-10 17:58N 47°37' W 122°21'0 0.0
2017-Dec-10 02:22N 47°37' W 122°21'411.3
2017-Dec-10 02:01N 47°39' W 122°26'1223.1
2017-Dec-10 01:31N 47°50' W 122°23'1018.7
2017-Dec-10 00:59N 48°00' W 122°20'3 0.9
2017-Dec-09 21:05N 48°02' W 122°24'0 1.9
2017-Dec-09 21:00N 48°02' W 122°24'612.6
2017-Dec-09 20:30N 47°56' W 122°21'1122.9
2017-Dec-09 20:01N 47°46' W 122°26'918.4
2017-Dec-09 19:30N 47°37' W 122°21'0 0.1
2017-Dec-09 19:00N 47°37' W 122°21'0 0.0
2017-Dec-09 18:27N 47°37' W 122°21'2 3.4
2017-Dec-09 18:00N 47°35' W 122°21'1 1.1
2017-Dec-09 17:31N 47°36' W 122°21'  
Track history (hours):
 
Tides and Currents Weather Stations Pressure Air Temp Water Temp Dewpoint Dewpoint Depression Visibility Wind Speed Wind Dir Waves Ship Positions

San Juan Clipper

Owner: Clipper Navigation Inc., Seattle, WA. More information available from US FCC via Universal Licensing System and Coast Guard Vessel Documentation Center.

Last reported at 2017-Dec-17 02:27 UTC. Time now 2017-Dec-17 06:22 UTC.
Position N 47°37' W 122°21'.

Length 26 m; draft 1.5 m.

Type: Passenger vessel. MMSI: 366902890.

Date/timePositionNaut miles runAvg speedWind from/ knotsBaromVisibWave heightAir tempDewpointWater temp
2017-Dec-17 02:27N 47°37' W 122°21'510.4
2017-Dec-17 02:01N 47°40' W 122°27'1121.4
2017-Dec-17 01:30N 47°50' W 122°24'1221.9
2017-Dec-17 00:58N 48°02' W 122°21'2 0.5
2017-Dec-16 20:50N 48°02' W 122°24'515.5
2017-Dec-16 20:31N 47°58' W 122°20'1223.7
2017-Dec-16 20:01N 47°46' W 122°25'1019.7
2017-Dec-16 19:30N 47°37' W 122°21'0 0.3
2017-Dec-16 18:53N 47°37' W 122°21'0 0.0
2017-Dec-16 18:30N 47°37' W 122°21'0 0.0
2017-Dec-16 18:00N 47°37' W 122°21'2 3.1
2017-Dec-16 17:30N 47°35' W 122°21'  
2017-Dec-11 02:14N 47°37' W 122°21'0 0.2
2017-Dec-11 02:00N 47°37' W 122°21'1019.8
2017-Dec-11 01:31N 47°46' W 122°25'1325.5
2017-Dec-11 01:00N 47°59' W 122°20'5 7.7
2017-Dec-11 00:24N 48°02' W 122°24'0 0.0
2017-Dec-10 23:54N 48°02' W 122°24'0 0.0
2017-Dec-10 21:18N 48°02' W 122°24'0 0.0
2017-Dec-10 20:52N 48°02' W 122°24'514.8
2017-Dec-10 20:30N 47°58' W 122°20'1122.8
2017-Dec-10 20:01N 47°47' W 122°25'1020.3
2017-Dec-10 19:30N 47°37' W 122°22'1 1.4
2017-Dec-10 19:00N 47°37' W 122°21'0 0.1
2017-Dec-10 18:27N 47°37' W 122°21'0 0.1
2017-Dec-10 17:58N 47°37' W 122°21'0 0.0
2017-Dec-10 02:22N 47°37' W 122°21'411.3
2017-Dec-10 02:01N 47°39' W 122°26'1223.1
2017-Dec-10 01:31N 47°50' W 122°23'1018.7
2017-Dec-10 00:59N 48°00' W 122°20'3 0.9
2017-Dec-09 21:05N 48°02' W 122°24'0 1.9
2017-Dec-09 21:00N 48°02' W 122°24'612.6
2017-Dec-09 20:30N 47°56' W 122°21'1122.9
2017-Dec-09 20:01N 47°46' W 122°26'918.4
2017-Dec-09 19:30N 47°37' W 122°21'0 0.1
2017-Dec-09 19:00N 47°37' W 122°21'0 0.0
2017-Dec-09 18:27N 47°37' W 122°21'2 3.4
2017-Dec-09 18:00N 47°35' W 122°21'1 1.1
2017-Dec-09 17:31N 47°36' W 122°21'  

Dump ship's entire track history